createdAt,value
2022-12-16T00:00:11.451Z,20.14
2022-12-16T00:01:12.085Z,20.16
2022-12-16T00:02:12.710Z,20.18
2022-12-16T00:03:14.269Z,20.14
2022-12-16T00:04:14.967Z,20.14
2022-12-16T00:05:15.710Z,20.06
2022-12-16T00:06:16.312Z,20.16
2022-12-16T00:07:16.905Z,20.09
2022-12-16T00:08:17.503Z,20.07
2022-12-16T00:09:18.095Z,20.10
2022-12-16T00:10:18.695Z,20.07
2022-12-16T00:11:19.290Z,20.09
2022-12-16T00:12:19.890Z,20.10
2022-12-16T00:13:20.482Z,20.04
2022-12-16T00:14:21.084Z,20.11
2022-12-16T00:15:21.676Z,20.02
2022-12-16T00:16:22.456Z,20.09
2022-12-16T00:17:23.126Z,20.04
2022-12-16T00:18:23.728Z,20.04
2022-12-16T00:19:24.319Z,20.04
2022-12-16T00:20:24.920Z,20.03
2022-12-16T00:21:25.511Z,19.99
2022-12-16T00:22:26.115Z,19.96
2022-12-16T00:23:26.705Z,19.99
2022-12-16T00:24:27.307Z,19.94
2022-12-16T00:25:27.898Z,20.00
2022-12-16T00:26:28.502Z,19.94
2022-12-16T00:27:29.096Z,19.95
2022-12-16T00:28:29.699Z,19.94
2022-12-16T00:29:30.293Z,19.99
2022-12-16T00:30:30.893Z,19.96
2022-12-16T00:31:31.582Z,19.88
2022-12-16T00:32:32.198Z,19.94
2022-12-16T00:33:33.303Z,20.00
2022-12-16T00:34:34.118Z,19.92
2022-12-16T00:35:34.762Z,19.94
2022-12-16T00:36:35.364Z,19.91
2022-12-16T00:37:35.962Z,19.88
2022-12-16T00:38:36.561Z,19.99
2022-12-16T00:39:37.161Z,19.92
2022-12-16T00:40:37.807Z,19.89
2022-12-16T00:41:38.402Z,19.84
2022-12-16T00:42:39.003Z,19.96
2022-12-16T00:43:39.594Z,19.91
2022-12-16T00:44:40.194Z,19.89
2022-12-16T00:45:40.832Z,19.91
2022-12-16T00:46:41.478Z,19.86
2022-12-16T00:47:43.924Z,19.94
2022-12-16T00:48:43.664Z,19.91
2022-12-16T00:49:44.309Z,19.88
2022-12-16T00:50:44.974Z,19.92
2022-12-16T00:51:45.570Z,19.88
2022-12-16T00:52:46.174Z,19.92
2022-12-16T00:53:46.837Z,19.91
2022-12-16T00:54:47.438Z,19.91
2022-12-16T00:55:48.032Z,19.86
2022-12-16T00:56:48.632Z,19.88
2022-12-16T00:57:49.323Z,19.88
2022-12-16T00:58:49.924Z,19.89
2022-12-16T00:59:51.052Z,19.86
2022-12-16T01:00:51.821Z,19.84
2022-12-16T01:01:52.666Z,19.91
2022-12-16T01:02:54.264Z,19.82
2022-12-16T01:03:54.962Z,19.84
2022-12-16T01:04:55.964Z,19.77
2022-12-16T01:05:56.560Z,19.79
2022-12-16T01:06:57.158Z,19.79
2022-12-16T01:07:57.749Z,19.76
2022-12-16T01:08:58.356Z,19.81
2022-12-16T01:09:59.019Z,19.81
2022-12-16T01:10:59.620Z,19.79
2022-12-16T01:12:00.212Z,19.76
2022-12-16T01:13:00.813Z,19.77
2022-12-16T01:14:01.406Z,19.71
2022-12-16T01:15:02.009Z,19.77
2022-12-16T01:16:02.625Z,19.84
2022-12-16T01:17:03.252Z,19.84
2022-12-16T01:18:03.843Z,19.76
2022-12-16T01:19:04.445Z,19.76
2022-12-16T01:20:05.046Z,19.76
2022-12-16T01:21:05.651Z,19.79
2022-12-16T01:22:06.311Z,19.76
2022-12-16T01:23:06.914Z,19.74
2022-12-16T01:24:07.503Z,19.81
2022-12-16T01:25:08.102Z,19.79
2022-12-16T01:26:09.003Z,19.74
2022-12-16T01:27:09.609Z,19.71
2022-12-16T01:28:10.199Z,19.66
2022-12-16T01:29:10.859Z,19.76
2022-12-16T01:30:11.449Z,19.66
2022-12-16T01:31:12.148Z,19.76
2022-12-16T01:32:12.841Z,19.73
2022-12-16T01:33:14.295Z,19.76
2022-12-16T01:34:14.887Z,19.74
2022-12-16T01:35:44.251Z,19.69
2022-12-16T01:36:17.068Z,19.70
2022-12-16T01:37:17.667Z,19.70
2022-12-16T01:38:18.262Z,19.73
2022-12-16T01:39:18.860Z,19.74
2022-12-16T01:40:19.503Z,19.67
2022-12-16T01:41:20.104Z,19.66
2022-12-16T01:42:20.694Z,19.66
2022-12-16T01:43:21.347Z,19.73
2022-12-16T01:44:21.948Z,19.64
2022-12-16T01:45:22.592Z,19.66
2022-12-16T01:46:23.391Z,19.62
2022-12-16T01:47:23.845Z,19.66
2022-12-16T01:48:24.439Z,19.67
2022-12-16T01:49:25.038Z,19.69
2022-12-16T01:50:25.630Z,19.67
2022-12-16T01:51:26.233Z,19.62
2022-12-16T01:52:26.886Z,19.64
2022-12-16T01:53:27.479Z,19.58
2022-12-16T01:54:28.072Z,19.69
2022-12-16T01:55:28.679Z,19.54
2022-12-16T01:56:29.347Z,19.63
2022-12-16T01:57:29.940Z,19.58
2022-12-16T01:58:30.534Z,19.59
2022-12-16T01:59:31.135Z,19.62
2022-12-16T02:00:31.729Z,19.59
2022-12-16T02:01:32.461Z,19.54
2022-12-16T02:02:33.333Z,19.62
2022-12-16T02:03:34.420Z,19.63
2022-12-16T02:04:35.239Z,19.52
2022-12-16T02:05:35.841Z,19.54
2022-12-16T02:06:36.435Z,19.55
2022-12-16T02:07:37.840Z,19.58
2022-12-16T02:08:38.433Z,19.58
2022-12-16T02:09:39.030Z,19.59
2022-12-16T02:10:39.625Z,19.66
2022-12-16T02:11:40.223Z,19.51
2022-12-16T02:12:41.617Z,19.58
2022-12-16T02:13:42.220Z,19.59
2022-12-16T02:14:42.817Z,19.55
2022-12-16T02:15:43.419Z,19.56
2022-12-16T02:16:44.058Z,19.51
2022-12-16T02:17:44.692Z,19.56
2022-12-16T02:18:45.286Z,19.47
2022-12-16T02:19:45.888Z,19.56
2022-12-16T02:20:46.513Z,19.51
2022-12-16T02:21:47.177Z,19.47
2022-12-16T02:22:47.770Z,19.44
2022-12-16T02:23:48.368Z,19.44
2022-12-16T02:24:48.961Z,19.55
2022-12-16T02:25:49.569Z,19.47
2022-12-16T02:26:50.156Z,19.47
2022-12-16T02:27:50.765Z,19.52
2022-12-16T02:28:51.356Z,19.51
2022-12-16T02:29:53.748Z,19.49
2022-12-16T02:30:55.506Z,19.44
2022-12-16T02:31:56.140Z,19.44
2022-12-16T02:32:56.729Z,19.58
2022-12-16T02:33:57.334Z,19.51
2022-12-16T02:34:58.042Z,19.51
2022-12-16T02:35:58.645Z,19.51
2022-12-16T02:36:59.238Z,19.51
2022-12-16T02:37:59.838Z,19.51
2022-12-16T02:39:00.434Z,19.45
2022-12-16T02:40:01.037Z,19.47
2022-12-16T02:41:01.629Z,19.44
2022-12-16T02:42:02.231Z,19.51
2022-12-16T02:43:02.844Z,19.47
2022-12-16T02:44:03.426Z,19.48
2022-12-16T02:45:04.016Z,19.48
2022-12-16T02:46:04.663Z,19.48
2022-12-16T02:47:05.278Z,19.48
2022-12-16T02:48:05.878Z,19.45
2022-12-16T02:49:06.621Z,19.45
2022-12-16T02:50:07.271Z,19.48
2022-12-16T02:51:07.862Z,19.45
2022-12-16T02:52:08.471Z,19.54
2022-12-16T02:53:09.126Z,19.47
2022-12-16T02:54:09.732Z,19.47
2022-12-16T02:55:10.333Z,19.44
2022-12-16T02:56:11.135Z,19.47
2022-12-16T02:57:11.731Z,19.48
2022-12-16T02:58:12.377Z,19.47
2022-12-16T02:59:12.972Z,19.47
2022-12-16T03:00:13.572Z,19.41
2022-12-16T03:01:14.224Z,19.45
2022-12-16T03:02:15.011Z,19.40
2022-12-16T03:03:15.831Z,19.41
2022-12-16T03:04:16.463Z,19.45
2022-12-16T03:05:17.857Z,19.45
2022-12-16T03:06:18.458Z,19.47
2022-12-16T03:07:19.050Z,19.45
2022-12-16T03:08:19.652Z,19.44
2022-12-16T03:09:20.245Z,19.47
2022-12-16T03:10:20.847Z,19.49
2022-12-16T03:11:21.438Z,19.47
2022-12-16T03:12:22.046Z,19.47
2022-12-16T03:13:22.630Z,19.51
2022-12-16T03:14:23.230Z,19.47
2022-12-16T03:15:23.822Z,19.47
2022-12-16T03:16:24.503Z,19.41
2022-12-16T03:17:25.103Z,19.45
2022-12-16T03:18:25.705Z,19.39
2022-12-16T03:19:26.299Z,19.45
2022-12-16T03:20:26.963Z,19.44
2022-12-16T03:21:27.555Z,19.41
2022-12-16T03:22:28.158Z,19.34
2022-12-16T03:23:29.037Z,19.48
2022-12-16T03:24:29.732Z,19.34
2022-12-16T03:25:30.319Z,19.40
2022-12-16T03:26:31.722Z,19.39
2022-12-16T03:27:32.316Z,19.45
2022-12-16T03:28:32.915Z,19.34
2022-12-16T03:29:33.510Z,19.37
2022-12-16T03:30:34.153Z,19.45
2022-12-16T03:31:34.749Z,19.39
2022-12-16T03:32:35.479Z,19.41
2022-12-16T03:33:36.061Z,19.34
2022-12-16T03:34:36.735Z,19.41
2022-12-16T03:35:37.326Z,19.34
2022-12-16T03:36:37.929Z,19.31
2022-12-16T03:37:38.523Z,19.34
2022-12-16T03:38:39.131Z,19.39
2022-12-16T03:39:39.720Z,19.36
2022-12-16T03:40:40.324Z,19.39
2022-12-16T03:41:40.915Z,19.33
2022-12-16T03:42:41.515Z,19.36
2022-12-16T03:43:42.106Z,19.30
2022-12-16T03:44:42.709Z,19.36
2022-12-16T03:45:43.451Z,19.34
2022-12-16T03:46:44.147Z,19.36
2022-12-16T03:47:44.756Z,19.27
2022-12-16T03:48:45.356Z,19.26
2022-12-16T03:49:45.998Z,19.31
2022-12-16T03:50:46.600Z,19.39
2022-12-16T03:51:47.193Z,19.33
2022-12-16T03:52:47.796Z,19.29
2022-12-16T03:53:48.390Z,19.34
2022-12-16T03:54:48.991Z,19.27
2022-12-16T03:55:49.588Z,19.29
2022-12-16T03:56:50.236Z,19.24
2022-12-16T03:57:50.831Z,19.33
2022-12-16T03:58:51.580Z,19.33
2022-12-16T03:59:52.173Z,19.29
2022-12-16T04:00:52.930Z,19.27
2022-12-16T04:01:53.699Z,19.26
2022-12-16T04:02:54.654Z,19.31
2022-12-16T04:03:55.494Z,19.31
2022-12-16T04:04:56.149Z,19.27
2022-12-16T04:05:56.734Z,19.24
2022-12-16T04:06:57.334Z,19.26
2022-12-16T04:08:01.862Z,19.26
2022-12-16T04:08:59.434Z,19.27
2022-12-16T04:10:00.028Z,19.27
2022-12-16T04:11:00.627Z,19.27
2022-12-16T04:12:01.221Z,19.29
2022-12-16T04:13:01.824Z,19.34
2022-12-16T04:14:02.415Z,19.18
2022-12-16T04:15:03.079Z,19.27
2022-12-16T04:16:03.719Z,19.24
2022-12-16T04:17:04.349Z,19.21
2022-12-16T04:18:04.922Z,19.18
2022-12-16T04:19:05.523Z,19.31
2022-12-16T04:20:06.114Z,19.29
2022-12-16T04:21:06.714Z,19.31
2022-12-16T04:22:07.306Z,19.30
2022-12-16T04:23:08.894Z,19.19
2022-12-16T04:24:09.509Z,19.27
2022-12-16T04:25:10.101Z,19.27
2022-12-16T04:26:10.702Z,19.29
2022-12-16T04:27:15.343Z,19.22
2022-12-16T04:28:12.887Z,19.29
2022-12-16T04:29:13.479Z,19.30
2022-12-16T04:30:14.079Z,19.18
2022-12-16T04:31:14.695Z,19.30
2022-12-16T04:32:15.312Z,19.19
2022-12-16T04:33:15.909Z,19.24
2022-12-16T04:34:16.505Z,19.18
2022-12-16T04:35:17.098Z,19.29
2022-12-16T04:36:17.696Z,19.24
2022-12-16T04:37:18.287Z,19.22
2022-12-16T04:38:18.886Z,19.29
2022-12-16T04:39:19.477Z,19.19
2022-12-16T04:40:20.077Z,19.24
2022-12-16T04:41:20.672Z,19.22
2022-12-16T04:42:21.561Z,19.18
2022-12-16T04:43:22.219Z,19.19
2022-12-16T04:44:22.821Z,19.24
2022-12-16T04:45:23.415Z,19.26
2022-12-16T04:46:24.128Z,19.22
2022-12-16T04:47:24.902Z,19.16
2022-12-16T04:48:25.503Z,19.19
2022-12-16T04:49:26.094Z,19.22
2022-12-16T04:50:26.694Z,19.26
2022-12-16T04:51:27.284Z,19.21
2022-12-16T04:52:27.886Z,19.21
2022-12-16T04:53:28.560Z,19.22
2022-12-16T04:54:29.230Z,19.19
2022-12-16T04:55:29.871Z,19.16
2022-12-16T04:56:30.472Z,19.29
2022-12-16T04:57:31.114Z,19.21
2022-12-16T04:58:31.712Z,19.18
2022-12-16T04:59:32.304Z,19.24
2022-12-16T05:00:32.954Z,19.21
2022-12-16T05:01:33.778Z,19.21
2022-12-16T05:02:34.564Z,19.19
2022-12-16T05:03:35.773Z,19.24
2022-12-16T05:04:37.480Z,19.27
2022-12-16T05:05:38.070Z,19.22
2022-12-16T05:06:38.670Z,19.24
2022-12-16T05:07:39.262Z,19.19
2022-12-16T05:08:39.910Z,19.21
2022-12-16T05:09:40.503Z,19.21
2022-12-16T05:10:41.103Z,19.22
2022-12-16T05:11:41.705Z,19.21
2022-12-16T05:12:42.296Z,19.22
2022-12-16T05:13:42.888Z,19.24
2022-12-16T05:14:43.490Z,19.16
2022-12-16T05:15:44.159Z,19.14
2022-12-16T05:16:44.780Z,19.19
2022-12-16T05:17:45.373Z,19.18
2022-12-16T05:18:45.975Z,19.24
2022-12-16T05:19:46.565Z,19.24
2022-12-16T05:20:47.165Z,19.26
2022-12-16T05:21:47.756Z,19.19
2022-12-16T05:22:48.354Z,19.22
2022-12-16T05:23:48.948Z,19.19
2022-12-16T05:24:52.875Z,19.22
2022-12-16T05:25:51.137Z,19.19
2022-12-16T05:26:51.733Z,19.24
2022-12-16T05:27:52.323Z,19.22
2022-12-16T05:28:52.924Z,19.16
2022-12-16T05:29:53.517Z,19.19
2022-12-16T05:30:54.117Z,19.14
2022-12-16T05:31:54.850Z,19.18
2022-12-16T05:32:55.451Z,19.21
2022-12-16T05:33:56.218Z,19.18
2022-12-16T05:34:56.820Z,19.18
2022-12-16T05:35:57.412Z,19.21
2022-12-16T05:36:58.011Z,19.16
2022-12-16T05:37:58.602Z,19.14
2022-12-16T05:38:59.208Z,19.26
2022-12-16T05:39:59.796Z,19.16
2022-12-16T05:41:00.457Z,19.21
2022-12-16T05:42:01.053Z,19.16
2022-12-16T05:43:01.646Z,19.16
2022-12-16T05:44:02.238Z,19.15
2022-12-16T05:45:02.839Z,19.08
2022-12-16T05:46:03.614Z,19.14
2022-12-16T05:47:04.380Z,19.11
2022-12-16T05:48:04.987Z,19.14
2022-12-16T05:49:05.590Z,19.14
2022-12-16T05:50:06.179Z,19.12
2022-12-16T05:51:06.779Z,19.15
2022-12-16T05:52:07.370Z,19.18
2022-12-16T05:53:07.971Z,19.19
2022-12-16T05:54:08.565Z,19.22
2022-12-16T05:55:09.164Z,19.21
2022-12-16T05:56:09.755Z,19.14
2022-12-16T05:57:10.355Z,19.08
2022-12-16T05:58:10.947Z,19.14
2022-12-16T05:59:11.595Z,19.21
2022-12-16T06:00:12.186Z,19.19
2022-12-16T06:01:12.784Z,19.11
2022-12-16T06:02:13.607Z,19.15
2022-12-16T06:03:14.437Z,19.12
2022-12-16T06:04:17.711Z,19.08
2022-12-16T06:05:16.723Z,19.15
2022-12-16T06:06:17.315Z,19.16
2022-12-16T06:07:18.146Z,19.14
2022-12-16T06:08:18.731Z,19.18
2022-12-16T06:09:19.333Z,19.09
2022-12-16T06:10:19.927Z,19.15
2022-12-16T06:11:20.577Z,19.19
2022-12-16T06:12:21.171Z,19.12
2022-12-16T06:13:21.771Z,19.09
2022-12-16T06:14:22.365Z,19.09
2022-12-16T06:15:22.963Z,19.11
2022-12-16T06:16:23.585Z,19.09
2022-12-16T06:17:24.179Z,19.16
2022-12-16T06:18:24.771Z,19.12
2022-12-16T06:19:25.371Z,19.12
2022-12-16T06:20:26.012Z,19.15
2022-12-16T06:21:26.610Z,19.07
2022-12-16T06:22:27.201Z,19.18
2022-12-16T06:23:27.801Z,19.11
2022-12-16T06:24:28.392Z,19.04
2022-12-16T06:25:28.993Z,19.12
2022-12-16T06:26:29.654Z,19.14
2022-12-16T06:27:30.253Z,19.14
2022-12-16T06:28:30.845Z,19.11
2022-12-16T06:29:31.446Z,19.11
2022-12-16T06:30:32.087Z,19.04
2022-12-16T06:31:32.864Z,19.09
2022-12-16T06:32:33.598Z,19.16
2022-12-16T06:33:34.548Z,19.04
2022-12-16T06:34:35.319Z,19.09
2022-12-16T06:35:36.016Z,19.09
2022-12-16T06:36:36.610Z,19.08
2022-12-16T06:37:37.212Z,19.12
2022-12-16T06:38:37.809Z,19.04
2022-12-16T06:39:38.405Z,19.04
2022-12-16T06:40:38.995Z,19.12
2022-12-16T06:41:39.594Z,19.02
2022-12-16T06:42:40.188Z,19.09
2022-12-16T06:43:40.787Z,19.09
2022-12-16T06:44:41.378Z,19.12
2022-12-16T06:45:42.030Z,19.09
2022-12-16T06:46:42.612Z,19.04
2022-12-16T06:47:43.209Z,19.02
2022-12-16T06:48:43.801Z,19.11
2022-12-16T06:49:44.401Z,19.04
2022-12-16T06:50:45.238Z,19.08
2022-12-16T06:51:45.830Z,19.04
2022-12-16T06:52:47.224Z,19.04
2022-12-16T06:53:47.826Z,19.08
2022-12-16T06:54:48.422Z,19.11
2022-12-16T06:55:49.017Z,19.04
2022-12-16T06:56:49.608Z,19.09
2022-12-16T06:57:50.209Z,19.02
2022-12-16T06:58:50.802Z,19.02
2022-12-16T06:59:51.401Z,19.14
2022-12-16T07:00:52.051Z,18.99
2022-12-16T07:01:52.779Z,19.08
2022-12-16T07:02:53.573Z,19.09
2022-12-16T07:03:54.285Z,19.11
2022-12-16T07:04:54.879Z,19.02
2022-12-16T07:05:55.478Z,19.07
2022-12-16T07:06:56.072Z,19.08
2022-12-16T07:07:56.678Z,19.09
2022-12-16T07:08:57.263Z,19.11
2022-12-16T07:09:57.861Z,19.08
2022-12-16T07:11:09.252Z,19.11
2022-12-16T07:12:00.900Z,19.00
2022-12-16T07:13:01.494Z,18.98
2022-12-16T07:14:02.094Z,19.04
2022-12-16T07:15:02.685Z,19.02
2022-12-16T07:16:03.307Z,19.09
2022-12-16T07:17:04.712Z,19.09
2022-12-16T07:18:05.315Z,19.09
2022-12-16T07:19:05.905Z,18.99
2022-12-16T07:20:06.507Z,19.04
2022-12-16T07:21:07.099Z,19.00
2022-12-16T07:22:07.702Z,19.08
2022-12-16T07:23:16.001Z,19.00
2022-12-16T07:24:10.658Z,19.00
2022-12-16T07:25:11.250Z,19.02
2022-12-16T07:26:11.852Z,19.00
2022-12-16T07:27:12.736Z,19.02
2022-12-16T07:28:15.743Z,19.00
2022-12-16T07:29:13.979Z,19.09
2022-12-16T07:30:14.583Z,19.00
2022-12-16T07:31:15.252Z,19.02
2022-12-16T07:32:15.898Z,18.98
2022-12-16T07:33:16.560Z,19.00
2022-12-16T07:34:17.162Z,19.00
2022-12-16T07:35:17.844Z,19.02
2022-12-16T07:36:18.418Z,18.99
2022-12-16T07:37:19.011Z,19.00
2022-12-16T07:38:19.611Z,19.04
2022-12-16T07:39:20.253Z,19.00
2022-12-16T07:40:20.903Z,18.98
2022-12-16T07:41:21.645Z,18.98
2022-12-16T07:42:22.245Z,19.02
2022-12-16T07:43:22.837Z,18.96
2022-12-16T07:44:23.437Z,19.02
2022-12-16T07:45:24.164Z,19.04
2022-12-16T07:46:24.746Z,19.00
2022-12-16T07:47:25.347Z,19.04
2022-12-16T07:48:25.952Z,19.04
2022-12-16T07:49:26.547Z,18.99
2022-12-16T07:50:27.197Z,18.98
2022-12-16T07:51:27.800Z,18.98
2022-12-16T07:52:28.401Z,18.99
2022-12-16T07:53:31.518Z,19.02
2022-12-16T07:54:31.439Z,18.96
2022-12-16T07:55:32.029Z,18.99
2022-12-16T07:56:32.630Z,19.07
2022-12-16T07:57:33.228Z,18.99
2022-12-16T07:58:33.828Z,18.98
2022-12-16T07:59:34.422Z,18.98
2022-12-16T08:00:35.023Z,19.04
2022-12-16T08:01:35.865Z,19.02
2022-12-16T08:02:36.736Z,18.98
2022-12-16T08:03:37.928Z,19.00
2022-12-16T08:04:38.717Z,18.99
2022-12-16T08:05:39.310Z,18.96
2022-12-16T08:06:40.603Z,18.99
2022-12-16T08:07:41.251Z,18.98
2022-12-16T08:08:41.851Z,19.00
2022-12-16T08:09:42.442Z,18.99
2022-12-16T08:10:43.046Z,18.98
2022-12-16T08:11:43.638Z,19.00
2022-12-16T08:12:44.242Z,19.04
2022-12-16T08:13:44.833Z,18.99
2022-12-16T08:14:45.435Z,19.04
2022-12-16T08:15:46.097Z,19.00
2022-12-16T08:16:46.847Z,19.00
2022-12-16T08:17:47.453Z,18.99
2022-12-16T08:18:48.050Z,19.00
2022-12-16T08:19:48.641Z,19.00
2022-12-16T08:20:49.240Z,18.96
2022-12-16T08:21:49.832Z,18.98
2022-12-16T08:22:50.432Z,18.99
2022-12-16T08:23:51.737Z,18.89
2022-12-16T08:24:53.786Z,18.88
2022-12-16T08:25:53.921Z,18.98
2022-12-16T08:26:55.515Z,18.89
2022-12-16T08:27:56.106Z,18.88
2022-12-16T08:29:02.072Z,18.96
2022-12-16T08:29:58.295Z,18.98
2022-12-16T08:30:58.944Z,18.98
2022-12-16T08:31:59.577Z,18.98
2022-12-16T08:33:06.133Z,18.98
2022-12-16T08:34:01.763Z,18.96
2022-12-16T08:35:02.366Z,18.86
2022-12-16T08:36:02.959Z,18.89
2022-12-16T08:37:03.574Z,18.99
2022-12-16T08:38:06.526Z,18.84
2022-12-16T08:39:05.746Z,18.96
2022-12-16T08:40:34.199Z,18.88
2022-12-16T08:41:08.068Z,18.99
2022-12-16T08:42:09.206Z,18.90
2022-12-16T08:43:12.763Z,18.96
2022-12-16T08:44:11.545Z,18.96
2022-12-16T08:45:12.201Z,18.88
2022-12-16T08:46:12.858Z,18.98
2022-12-16T08:47:13.473Z,18.89
2022-12-16T08:48:14.127Z,18.93
2022-12-16T08:50:16.261Z,19.00
2022-12-16T08:51:16.860Z,18.89
2022-12-16T08:52:17.515Z,18.99
2022-12-16T08:53:18.109Z,18.86
2022-12-16T08:54:18.711Z,18.95
2022-12-16T08:55:19.769Z,18.90
2022-12-16T08:56:20.950Z,18.96
2022-12-16T08:57:21.547Z,18.89
2022-12-16T08:58:22.148Z,18.93
2022-12-16T08:59:22.743Z,18.93
2022-12-16T09:00:23.345Z,18.89
2022-12-16T09:01:24.058Z,18.89
2022-12-16T09:02:24.804Z,18.95
2022-12-16T09:03:25.630Z,18.90
2022-12-16T09:04:26.375Z,18.86
2022-12-16T09:05:26.966Z,18.95
2022-12-16T09:06:27.566Z,18.86
2022-12-16T09:07:28.158Z,18.90
2022-12-16T09:08:28.760Z,18.84
2022-12-16T09:09:29.350Z,18.92
2022-12-16T09:10:33.303Z,18.88
2022-12-16T09:11:31.537Z,18.90
2022-12-16T09:12:32.138Z,18.93
2022-12-16T09:13:33.182Z,18.93
2022-12-16T09:14:33.994Z,18.83
2022-12-16T09:15:34.618Z,18.93
2022-12-16T09:16:35.280Z,18.92
2022-12-16T09:17:35.894Z,18.89
2022-12-16T09:18:36.555Z,18.89
2022-12-16T09:19:37.139Z,18.92
2022-12-16T09:20:37.739Z,18.86
2022-12-16T09:21:38.334Z,18.93
2022-12-16T09:22:38.935Z,18.89
2022-12-16T09:23:39.532Z,18.89
2022-12-16T09:24:40.194Z,18.96
2022-12-16T09:25:40.787Z,18.86
2022-12-16T09:26:41.491Z,18.88
2022-12-16T09:27:42.107Z,18.90
2022-12-16T09:28:42.766Z,18.92
2022-12-16T09:29:45.023Z,18.88
2022-12-16T09:30:44.081Z,18.95
2022-12-16T09:31:44.723Z,18.90
2022-12-16T09:32:45.322Z,18.83
2022-12-16T09:33:45.917Z,18.88
2022-12-16T09:34:46.515Z,18.83
2022-12-16T09:35:47.106Z,18.92
2022-12-16T09:36:47.711Z,18.89
2022-12-16T09:37:48.305Z,18.86
2022-12-16T09:38:48.906Z,18.90
2022-12-16T09:39:49.499Z,18.90
2022-12-16T09:40:50.159Z,18.90
2022-12-16T09:41:50.751Z,18.90
2022-12-16T09:42:51.353Z,18.88
2022-12-16T09:43:51.944Z,18.93
2022-12-16T09:44:52.544Z,18.92
2022-12-16T09:45:53.252Z,18.92
2022-12-16T09:46:53.949Z,18.90
2022-12-16T09:47:55.464Z,18.96
2022-12-16T09:48:56.065Z,18.93
2022-12-16T09:49:56.658Z,18.93
2022-12-16T09:50:57.255Z,18.96
2022-12-16T09:51:57.850Z,18.93
2022-12-16T09:52:59.250Z,18.89
2022-12-16T09:53:59.842Z,18.92
2022-12-16T09:55:00.448Z,18.93
2022-12-16T09:56:01.049Z,18.93
2022-12-16T09:57:01.679Z,18.93
2022-12-16T09:58:02.270Z,18.86
2022-12-16T09:59:03.672Z,18.92
2022-12-16T10:00:04.268Z,18.90
2022-12-16T10:01:04.933Z,18.89
2022-12-16T10:02:05.751Z,18.93
2022-12-16T10:03:07.184Z,18.88
2022-12-16T10:04:08.090Z,18.90
2022-12-16T10:05:08.713Z,18.90
2022-12-16T10:06:09.294Z,18.84
2022-12-16T10:07:09.941Z,18.88
2022-12-16T10:08:14.347Z,18.88
2022-12-16T10:09:12.131Z,18.92
2022-12-16T10:10:12.719Z,18.84
2022-12-16T10:11:13.320Z,18.90
2022-12-16T10:12:13.911Z,18.86
2022-12-16T10:13:14.511Z,18.86
2022-12-16T10:14:19.215Z,18.88
2022-12-16T10:15:16.749Z,18.84
2022-12-16T10:16:17.432Z,18.83
2022-12-16T10:17:18.227Z,18.88
2022-12-16T10:18:19.060Z,18.88
2022-12-16T10:19:19.654Z,18.84
2022-12-16T10:20:20.245Z,18.81
2022-12-16T10:21:20.847Z,18.84
2022-12-16T10:22:21.444Z,18.84
2022-12-16T10:23:22.045Z,18.88
2022-12-16T10:24:22.644Z,18.86
2022-12-16T10:25:25.261Z,18.88
2022-12-16T10:26:24.893Z,18.90
2022-12-16T10:27:25.491Z,18.88
2022-12-16T10:28:26.083Z,18.88
2022-12-16T10:29:26.685Z,18.89
2022-12-16T10:30:27.276Z,18.86
2022-12-16T10:31:31.471Z,18.84
2022-12-16T10:32:29.462Z,18.86
2022-12-16T10:33:30.399Z,18.84
2022-12-16T10:34:31.115Z,18.89
2022-12-16T10:35:31.714Z,18.84
2022-12-16T10:36:33.158Z,18.83
2022-12-16T10:37:33.850Z,18.83
2022-12-16T10:38:34.544Z,18.84
2022-12-16T10:39:35.127Z,18.86
2022-12-16T10:40:35.719Z,18.89
2022-12-16T10:41:36.318Z,18.90
2022-12-16T10:42:36.912Z,18.83
2022-12-16T10:43:38.513Z,18.88
2022-12-16T10:44:39.100Z,18.89
2022-12-16T10:45:39.698Z,18.84
2022-12-16T10:46:40.328Z,18.81
2022-12-16T10:47:40.947Z,18.80
2022-12-16T10:48:49.287Z,18.88
2022-12-16T10:49:43.161Z,18.81
2022-12-16T10:50:43.768Z,18.80
2022-12-16T10:51:44.370Z,18.80
2022-12-16T10:52:44.963Z,18.84
2022-12-16T10:53:45.625Z,18.88
2022-12-16T10:54:46.218Z,18.90
2022-12-16T10:55:46.817Z,18.78
2022-12-16T10:56:47.408Z,18.80
2022-12-16T10:57:48.011Z,18.80
2022-12-16T10:58:48.602Z,18.83
2022-12-16T10:59:49.254Z,18.78
2022-12-16T11:00:49.849Z,18.81
2022-12-16T11:01:50.577Z,18.78
2022-12-16T11:02:51.477Z,18.80
2022-12-16T11:03:52.264Z,18.77
2022-12-16T11:04:55.587Z,18.78
2022-12-16T11:05:56.073Z,18.81
2022-12-16T11:06:56.725Z,18.80
2022-12-16T11:07:57.331Z,18.83
2022-12-16T11:08:57.966Z,18.78
2022-12-16T11:09:58.716Z,18.77
2022-12-16T11:10:59.356Z,18.84
2022-12-16T11:11:59.958Z,18.78
2022-12-16T11:13:00.548Z,18.75
2022-12-16T11:14:01.149Z,18.80
2022-12-16T11:15:29.843Z,18.77
2022-12-16T11:16:03.400Z,18.80
2022-12-16T11:17:04.000Z,18.81
2022-12-16T11:18:04.596Z,18.77
2022-12-16T11:19:05.189Z,18.81
2022-12-16T11:20:05.787Z,18.81
2022-12-16T11:21:09.123Z,18.78
2022-12-16T11:22:07.973Z,18.83
2022-12-16T11:23:09.469Z,18.78
2022-12-16T11:24:10.134Z,18.78
2022-12-16T11:25:10.727Z,18.81
2022-12-16T11:26:11.328Z,18.83
2022-12-16T11:27:11.919Z,18.74
2022-12-16T11:28:12.519Z,18.78
2022-12-16T11:29:13.121Z,18.80
2022-12-16T11:30:13.792Z,18.75
2022-12-16T11:31:14.486Z,18.75
2022-12-16T11:32:15.104Z,18.77
2022-12-16T11:33:15.695Z,18.81
2022-12-16T11:34:16.298Z,18.77
2022-12-16T11:35:16.887Z,18.75
2022-12-16T11:36:17.489Z,18.83
2022-12-16T11:37:20.992Z,18.80
2022-12-16T11:38:19.713Z,18.78
2022-12-16T11:39:20.337Z,18.78
2022-12-16T11:40:20.939Z,18.81
2022-12-16T11:41:21.750Z,18.80
2022-12-16T11:42:23.151Z,18.71
2022-12-16T11:43:23.742Z,18.83
2022-12-16T11:44:24.342Z,18.77
2022-12-16T11:45:24.934Z,18.78
2022-12-16T11:46:25.558Z,18.73
2022-12-16T11:47:26.191Z,18.73
2022-12-16T11:48:26.787Z,18.75
2022-12-16T11:49:27.380Z,18.75
2022-12-16T11:50:27.978Z,18.81
2022-12-16T11:51:28.570Z,18.81
2022-12-16T11:52:36.985Z,18.81
2022-12-16T11:53:31.235Z,18.77
2022-12-16T11:54:32.019Z,18.75
2022-12-16T11:56:03.375Z,18.71
2022-12-16T11:56:34.266Z,18.74
2022-12-16T11:57:34.863Z,18.74
2022-12-16T11:58:35.465Z,18.78
2022-12-16T11:59:36.057Z,18.77
2022-12-16T12:00:36.720Z,18.78
2022-12-16T12:01:43.217Z,18.71
2022-12-16T12:02:38.941Z,18.73
2022-12-16T12:03:40.070Z,18.77
2022-12-16T12:04:40.998Z,18.80
2022-12-16T12:05:41.686Z,18.77
2022-12-16T12:06:42.285Z,18.75
2022-12-16T12:07:45.259Z,18.73
2022-12-16T12:08:44.471Z,18.74
2022-12-16T12:09:45.181Z,18.77
2022-12-16T12:10:45.782Z,18.73
2022-12-16T12:11:46.375Z,18.71
2022-12-16T12:12:47.026Z,18.77
2022-12-16T12:13:47.618Z,18.77
2022-12-16T12:14:48.218Z,18.77
2022-12-16T12:15:48.912Z,18.73
2022-12-16T12:16:49.589Z,18.77
2022-12-16T12:17:50.229Z,18.81
2022-12-16T12:18:50.880Z,18.75
2022-12-16T12:19:51.763Z,18.74
2022-12-16T12:20:52.417Z,18.71
2022-12-16T12:21:53.060Z,18.74
2022-12-16T12:22:53.662Z,18.75
2022-12-16T12:23:55.261Z,18.77
2022-12-16T12:24:58.032Z,18.68
2022-12-16T12:25:57.473Z,18.77
2022-12-16T12:26:58.135Z,18.75
2022-12-16T12:27:58.745Z,18.71
2022-12-16T12:28:59.331Z,18.80
2022-12-16T12:29:59.924Z,18.74
2022-12-16T12:31:01.474Z,18.80
2022-12-16T12:32:03.036Z,18.75
2022-12-16T12:33:03.672Z,18.73
2022-12-16T12:34:04.265Z,18.74
2022-12-16T12:35:04.915Z,18.73
2022-12-16T12:36:05.509Z,18.77
2022-12-16T12:37:06.111Z,18.74
2022-12-16T12:38:06.706Z,18.68
2022-12-16T12:39:07.354Z,18.75
2022-12-16T12:40:07.951Z,18.74
2022-12-16T12:41:08.552Z,18.70
2022-12-16T12:42:09.997Z,18.73
2022-12-16T12:43:10.594Z,18.70
2022-12-16T12:44:11.192Z,18.75
2022-12-16T12:45:11.818Z,18.74
2022-12-16T12:46:12.455Z,18.77
2022-12-16T12:47:13.175Z,18.74
2022-12-16T12:48:13.800Z,18.74
2022-12-16T12:50:29.825Z,18.73
2022-12-16T12:51:30.419Z,18.73
2022-12-16T12:52:31.022Z,18.73
2022-12-16T12:53:32.050Z,18.74
2022-12-16T12:54:33.521Z,18.71
2022-12-16T12:55:33.573Z,18.74
2022-12-16T12:56:34.267Z,18.75
2022-12-16T12:57:34.858Z,18.80
2022-12-16T12:58:35.459Z,18.74
2022-12-16T12:59:36.052Z,18.75
2022-12-16T13:00:36.730Z,18.75
2022-12-16T13:01:37.514Z,18.77
2022-12-16T13:02:38.344Z,18.80
2022-12-16T13:03:39.503Z,18.80